Terminal Aerodrome Forecast
Issued by NWS Charleston, WV

Current Version | Previous Version | Graphics & Text | Print | Product List | Glossary On
Versions: 1 2 3 4 5 6 7 8 9 10 11 12 13 14 15 16 17 18 19 20 21 22 23 24
000
FTUS41 KRLX 010858 AAA
TAFEKN
TAF AMD
KEKN 010858Z 0109/0206 00000KT 6SM BR SCT060
     FM011000 VRB03KT 3SM BR SCT060
      TEMPO 0110/0112 1SM BR BKN001
     FM011200 26004KT 3SM BR SCT050
     FM011300 27005KT P6SM SCT040
     FM012000 29009KT P6SM SCT050
     FM012300 31004KT P6SM FEW050=

USA.gov is the U.S. government's official web portal to all federal, state and local government web resources and services.